Time;durP1;ratioP1;P1;durP2;ratioP2;P2;SDS_P1;SDS_P2;PMS_P1;PMS_P2;Temp;Humidity;BMP_temperature;BMP_pressure;BME280_temperature;BME280_humidity;BME280_pressure;Samples;Min_cycle;Max_cycle;Signal;HPM_P1;HPM_P2
2023/02/25 00:00:33;;;;;;;25.95;14.82;;;10.70;99.90;;;;;;5041750;28;20230;-80
2023/02/25 00:03:03;;;;;;;29.65;16.83;;;10.70;99.90;;;;;;5045800;28;20228;-85
2023/02/25 00:05:30;;;;;;;21.63;15.15;;;10.70;99.90;;;;;;5026416;28;20227;-82
2023/02/25 00:07:57;;;;;;;27.05;15.80;;;10.70;99.90;;;;;;5047200;28;20211;-86
2023/02/25 00:10:25;;;;;;;21.55;14.50;;;10.70;99.90;;;;;;5047323;28;20192;-82
2023/02/25 00:12:52;;;;;;;21.30;13.15;;;10.70;99.90;;;;;;5048134;28;20208;-87
2023/02/25 00:15:20;;;;;;;19.42;14.70;;;10.70;99.90;;;;;;5048580;28;20231;-85
2023/02/25 00:17:48;;;;;;;24.92;14.82;;;10.70;99.90;;;;;;5053017;28;20211;-81
2023/02/25 00:20:21;;;;;;;19.85;12.32;;;10.70;99.90;;;;;;5048960;28;20291;-86
2023/02/25 00:22:49;;;;;;;17.52;12.18;;;10.70;99.90;;;;;;5051771;28;20223;-84
2023/02/25 00:25:17;;;;;;;17.00;10.77;;;10.70;99.90;;;;;;5050291;28;20234;-84
2023/02/25 00:27:44;;;;;;;19.92;11.70;;;10.70;99.90;;;;;;5034988;28;20249;-83
2023/02/25 00:30:13;;;;;;;22.75;13.60;;;10.60;99.90;;;;;;5060733;28;20199;-84
2023/02/25 00:32:42;;;;;;;23.88;14.80;;;10.60;99.90;;;;;;5038733;28;20187;-87
2023/02/25 00:35:11;;;;;;;18.48;13.18;;;10.70;99.90;;;;;;5050279;28;20289;-79
2023/02/25 00:37:40;;;;;;;20.85;12.73;;;10.70;99.90;;;;;;5052272;28;20223;-80
2023/02/25 00:40:13;;;;;;;16.55;13.73;;;10.70;99.90;;;;;;5051063;28;20214;-83
2023/02/25 00:42:40;;;;;;;18.98;12.65;;;10.70;99.90;;;;;;5051790;28;20229;-83
2023/02/25 00:45:09;;;;;;;19.92;12.98;;;10.70;99.90;;;;;;5044543;28;20257;-86
2023/02/25 00:47:36;;;;;;;18.60;12.55;;;10.70;99.90;;;;;;5046372;28;20253;-82
2023/02/25 00:50:04;;;;;;;13.98;11.10;;;10.70;99.90;;;;;;5035009;28;20290;-81
2023/02/25 00:52:33;;;;;;;19.83;13.15;;;10.60;99.90;;;;;;5039733;28;20225;-78
2023/02/25 00:55:02;;;;;;;17.10;12.35;;;10.60;99.90;;;;;;5038864;28;20246;-79
2023/02/25 00:57:29;;;;;;;23.65;13.85;;;10.60;99.90;;;;;;5038401;28;20265;-80
2023/02/25 00:59:57;;;;;;;22.30;13.90;;;10.60;99.90;;;;;;5021488;28;20225;-77
2023/02/25 01:02:24;;;;;;;18.30;13.43;;;10.70;99.90;;;;;;5037531;28;21126;-79
2023/02/25 01:04:51;;;;;;;21.80;14.38;;;10.60;99.90;;;;;;5019921;28;20306;-81
2023/02/25 01:07:19;;;;;;;21.23;13.40;;;10.60;99.90;;;;;;5039948;28;20310;-82
2023/02/25 01:09:48;;;;;;;17.45;13.15;;;10.60;99.90;;;;;;5048830;28;20222;-84
2023/02/25 01:12:17;;;;;;;25.77;17.98;;;10.40;99.90;;;;;;5036494;28;20222;-84
2023/02/25 01:14:44;;;;;;;21.55;16.05;;;10.30;99.90;;;;;;5046072;28;20224;-82
2023/02/25 01:17:11;;;;;;;24.05;16.38;;;10.20;99.90;;;;;;5049163;28;20218;-85
2023/02/25 01:19:39;;;;;;;26.00;16.45;;;10.10;99.90;;;;;;5051519;28;20219;-86
2023/02/25 01:22:07;;;;;;;20.45;15.88;;;10.10;99.90;;;;;;5052222;28;20735;-84
2023/02/25 01:24:34;;;;;;;20.27;14.55;;;10.00;99.90;;;;;;5047730;28;20643;-81
2023/02/25 01:27:05;;;;;;;18.65;13.35;;;10.00;99.90;;;;;;5041029;28;20680;-80
2023/02/25 01:29:38;;;;;;;14.75;11.88;;;10.00;99.90;;;;;;5042966;28;20219;-78
2023/02/25 01:32:07;;;;;;;17.58;13.82;;;10.00;99.90;;;;;;5042419;28;20227;-79
2023/02/25 01:34:34;;;;;;;14.25;11.55;;;10.00;99.90;;;;;;5042688;28;20652;-79
2023/02/25 01:37:01;;;;;;;22.92;14.73;;;10.00;99.90;;;;;;5022695;28;20274;-78
2023/02/25 01:39:31;;;;;;;26.60;17.45;;;10.00;99.90;;;;;;5024385;28;20234;-78
2023/02/25 01:42:08;;;;;;;28.85;18.98;;;9.90;99.90;;;;;;5046126;28;20203;-85
2023/02/25 01:45:02;;;;;;;26.63;18.90;;;9.90;99.90;;;;;;5064060;28;20234;-80
2023/02/25 01:47:32;;;;;;;23.60;17.63;;;9.90;99.90;;;;;;5037423;28;20628;-79
2023/02/25 01:50:01;;;;;;;24.75;16.80;;;9.90;99.90;;;;;;5047237;28;20247;-80
2023/02/25 01:52:28;;;;;;;22.98;15.57;;;9.80;99.90;;;;;;5051054;28;20219;-88
2023/02/25 01:54:57;;;;;;;20.20;15.55;;;9.80;99.90;;;;;;5049466;28;20732;-84
2023/02/25 01:57:27;;;;;;;18.50;14.35;;;9.80;99.90;;;;;;5015761;28;20225;-84
2023/02/25 01:59:56;;;;;;;18.27;13.07;;;9.80;99.90;;;;;;5044106;28;20270;-88
2023/02/25 02:02:25;;;;;;;17.48;13.60;;;9.70;99.90;;;;;;5030416;28;20191;-81
2023/02/25 02:04:56;;;;;;;17.55;12.85;;;9.70;99.90;;;;;;5049979;28;20246;-82
2023/02/25 02:07:24;;;;;;;20.55;14.25;;;9.70;99.90;;;;;;5028725;28;20226;-79
2023/02/25 02:09:55;;;;;;;16.75;12.00;;;9.70;99.90;;;;;;5042854;28;20222;-80
2023/02/25 02:12:24;;;;;;;18.13;12.98;;;9.70;99.90;;;;;;5010949;28;20210;-86
2023/02/25 02:14:52;;;;;;;13.68;10.38;;;9.70;99.90;;;;;;5045543;28;20215;-85
2023/02/25 02:17:27;;;;;;;28.95;14.68;;;9.70;99.90;;;;;;5051179;28;20253;-84
2023/02/25 02:20:13;;;;;;;24.05;15.30;;;9.60;99.90;;;;;;5043231;28;20780;-81
2023/02/25 02:22:49;;;;;;;21.38;14.60;;;9.60;99.90;;;;;;5030288;28;20199;-83
2023/02/25 02:25:46;;;;;;;26.80;16.55;;;9.70;99.90;;;;;;5035660;28;20222;-84
2023/02/25 02:28:52;;;;;;;15.38;12.45;;;9.70;99.90;;;;;;5031403;28;20227;-84
2023/02/25 02:31:29;;;;;;;18.67;13.45;;;9.70;99.90;;;;;;5047404;28;20237;-82
2023/02/25 02:34:05;;;;;;;15.27;11.88;;;9.70;99.90;;;;;;5052590;28;20219;-82
2023/02/25 02:36:46;;;;;;;15.27;11.93;;;9.60;99.90;;;;;;5034847;28;20586;-85
2023/02/25 02:39:19;;;;;;;15.25;11.15;;;9.70;99.90;;;;;;5027632;28;20240;-80
2023/02/25 02:41:55;;;;;;;16.40;12.13;;;9.60;99.90;;;;;;5050920;28;20192;-82
2023/02/25 02:44:28;;;;;;;19.40;13.02;;;9.60;99.90;;;;;;5054329;28;20242;-82
2023/02/25 02:47:00;;;;;;;11.80;10.18;;;9.60;99.90;;;;;;5053121;28;20231;-84
2023/02/25 02:49:39;;;;;;;11.75;9.48;;;9.60;99.90;;;;;;5030706;28;20649;-82
2023/02/25 02:52:13;;;;;;;11.55;10.00;;;9.50;99.90;;;;;;5037353;28;20191;-85
2023/02/25 02:54:43;;;;;;;11.32;8.75;;;9.50;99.90;;;;;;5054373;28;20214;-80
2023/02/25 02:57:12;;;;;;;13.23;9.77;;;9.50;99.90;;;;;;5063956;28;20218;-87
2023/02/25 02:59:45;;;;;;;11.63;9.38;;;9.50;99.90;;;;;;5028640;28;20283;-83
2023/02/25 03:02:19;;;;;;;18.38;12.48;;;9.50;99.90;;;;;;5036294;28;20282;-82
2023/02/25 03:04:50;;;;;;;15.85;11.05;;;9.50;99.90;;;;;;5048010;28;20253;-84
2023/02/25 03:07:18;;;;;;;15.50;10.27;;;9.60;99.90;;;;;;5053242;28;20223;-81
2023/02/25 03:09:49;;;;;;;21.83;14.45;;;9.60;99.90;;;;;;5050125;28;20220;-84
2023/02/25 03:12:20;;;;;;;14.05;11.45;;;9.60;99.90;;;;;;5024658;28;20202;-80
2023/02/25 03:14:50;;;;;;;17.42;12.52;;;9.50;99.90;;;;;;5031152;28;20278;-82
2023/02/25 03:17:22;;;;;;;18.10;13.20;;;9.40;99.90;;;;;;5051163;28;20219;-87
2023/02/25 03:19:55;;;;;;;18.88;14.60;;;9.40;99.90;;;;;;5051394;28;20231;-84
2023/02/25 03:22:27;;;;;;;23.42;17.50;;;9.30;99.90;;;;;;5034337;28;20585;-85
2023/02/25 03:24:59;;;;;;;22.08;16.13;;;9.30;99.90;;;;;;5052422;28;20258;-83
2023/02/25 03:27:28;;;;;;;23.52;15.80;;;9.30;99.90;;;;;;5042957;28;20226;-85
2023/02/25 03:30:11;;;;;;;26.10;16.67;;;9.30;99.90;;;;;;5032098;28;20219;-82
2023/02/25 03:32:43;;;;;;;26.15;17.27;;;9.30;99.90;;;;;;5056453;28;20194;-82
2023/02/25 03:35:13;;;;;;;30.73;19.92;;;9.20;99.90;;;;;;5034274;28;20274;-80
2023/02/25 03:37:44;;;;;;;23.38;17.15;;;9.20;99.90;;;;;;5053203;28;20215;-82
2023/02/25 03:40:14;;;;;;;26.63;18.05;;;9.20;99.90;;;;;;5046776;28;20215;-81
2023/02/25 03:42:47;;;;;;;27.95;20.27;;;9.20;99.90;;;;;;5052514;28;20251;-85
2023/02/25 03:45:16;;;;;;;28.17;20.90;;;9.20;99.90;;;;;;5052812;28;20227;-83
2023/02/25 03:47:45;;;;;;;20.67;17.10;;;9.10;99.90;;;;;;5045660;28;20654;-82
2023/02/25 03:50:15;;;;;;;18.88;14.20;;;9.20;99.90;;;;;;5049671;28;20230;-87
2023/02/25 03:52:45;;;;;;;25.67;19.23;;;9.20;99.90;;;;;;5051791;28;20200;-80
2023/02/25 03:55:13;;;;;;;32.20;20.60;;;9.10;99.90;;;;;;5045941;28;20207;-88
2023/02/25 03:57:44;;;;;;;25.00;16.90;;;9.10;99.90;;;;;;5043466;28;20229;-88
2023/02/25 04:00:18;;;;;;;20.92;15.90;;;9.20;99.90;;;;;;5047013;28;20234;-89
2023/02/25 04:02:48;;;;;;;21.50;16.60;;;9.20;99.90;;;;;;5052690;28;20191;-88
2023/02/25 04:05:17;;;;;;;21.38;15.38;;;9.20;99.90;;;;;;5042182;28;20277;-84
2023/02/25 04:07:45;;;;;;;19.65;14.88;;;9.10;99.90;;;;;;5058730;28;20219;-86
2023/02/25 04:10:16;;;;;;;22.05;15.85;;;9.00;99.90;;;;;;5056306;28;20219;-89
2023/02/25 04:12:43;;;;;;;16.63;13.65;;;9.00;99.90;;;;;;5064639;28;20203;-87
2023/02/25 04:15:12;;;;;;;18.90;14.70;;;8.90;99.90;;;;;;5058092;28;20223;-89
2023/02/25 04:17:40;;;;;;;17.98;13.48;;;8.80;99.90;;;;;;5043409;28;20226;-91
2023/02/25 04:20:13;;;;;;;18.88;13.77;;;8.80;99.90;;;;;;5045350;28;20267;-91
2023/02/25 04:22:40;;;;;;;17.70;13.77;;;8.80;99.90;;;;;;5039886;28;20196;-90
2023/02/25 04:25:08;;;;;;;18.17;14.52;;;8.80;99.90;;;;;;5029478;28;20216;-91
2023/02/25 04:27:35;;;;;;;19.55;14.35;;;8.90;99.90;;;;;;5029012;28;20219;-89
2023/02/25 04:30:03;;;;;;;18.08;14.13;;;8.90;99.90;;;;;;5044518;28;20278;-85
2023/02/25 04:32:30;;;;;;;20.20;15.30;;;8.90;99.90;;;;;;5051125;28;20617;-88
2023/02/25 04:35:01;;;;;;;21.48;16.55;;;9.00;99.90;;;;;;5043834;28;20692;-83
2023/02/25 04:37:30;;;;;;;27.17;19.67;;;9.00;99.90;;;;;;5047997;28;20707;-85
2023/02/25 04:39:59;;;;;;;24.25;18.08;;;9.00;99.90;;;;;;5041860;28;20254;-88
2023/02/25 04:42:26;;;;;;;24.10;16.27;;;9.00;99.90;;;;;;5046910;28;20199;-84
2023/02/25 04:44:54;;;;;;;20.88;16.27;;;9.00;99.90;;;;;;5051151;28;20713;-84
2023/02/25 04:47:22;;;;;;;21.80;16.23;;;9.00;99.90;;;;;;5043867;28;20223;-82
2023/02/25 04:49:49;;;;;;;22.38;15.98;;;8.90;99.90;;;;;;5049873;28;20678;-89
2023/02/25 04:52:16;;;;;;;21.98;18.27;;;8.80;99.90;;;;;;5032066;28;20199;-84
2023/02/25 04:54:45;;;;;;;19.60;16.02;;;8.60;99.90;;;;;;5047693;28;20222;-88
2023/02/25 04:57:13;;;;;;;19.30;15.13;;;8.40;99.90;;;;;;5045919;28;20253;-85
2023/02/25 04:59:42;;;;;;;20.15;14.95;;;8.30;99.90;;;;;;5049251;28;20214;-86
2023/02/25 05:02:10;;;;;;;17.05;14.45;;;8.30;99.90;;;;;;5033815;28;20203;-87
2023/02/25 05:04:39;;;;;;;17.05;13.40;;;8.30;99.90;;;;;;5054591;28;20230;-86
2023/02/25 05:07:07;;;;;;;21.63;14.10;;;8.30;99.90;;;;;;5050634;28;20215;-87
2023/02/25 05:09:35;;;;;;;19.35;14.73;;;8.40;99.90;;;;;;5026626;28;20299;-83
2023/02/25 05:12:04;;;;;;;16.17;13.30;;;8.40;99.90;;;;;;5048446;28;20268;-85
2023/02/25 05:14:34;;;;;;;18.80;14.43;;;8.50;99.90;;;;;;5026568;28;20241;-85
2023/02/25 05:17:01;;;;;;;19.75;14.00;;;8.40;99.90;;;;;;5042458;28;20223;-85
2023/02/25 05:19:28;;;;;;;17.70;13.30;;;8.40;99.90;;;;;;5042441;28;20249;-85
2023/02/25 05:21:56;;;;;;;17.65;13.45;;;8.40;99.90;;;;;;5045272;28;20195;-86
2023/02/25 05:24:24;;;;;;;18.02;13.23;;;8.40;99.90;;;;;;5049394;28;20223;-85
2023/02/25 05:26:53;;;;;;;20.95;14.15;;;8.40;99.90;;;;;;5051313;28;20228;-83
2023/02/25 05:29:21;;;;;;;15.73;13.23;;;8.50;99.90;;;;;;5043984;28;20234;-87
2023/02/25 05:31:50;;;;;;;16.55;13.32;;;8.50;99.90;;;;;;5041368;28;20202;-80
2023/02/25 05:34:17;;;;;;;17.58;13.32;;;8.50;99.90;;;;;;5047799;28;20215;-85
2023/02/25 05:36:45;;;;;;;14.63;12.52;;;8.50;99.90;;;;;;5044411;28;20671;-85
2023/02/25 05:39:15;;;;;;;16.92;13.25;;;8.50;99.90;;;;;;5020556;28;20277;-78
2023/02/25 05:41:42;;;;;;;16.08;12.00;;;8.50;99.90;;;;;;5044529;28;20318;-80
2023/02/25 05:44:10;;;;;;;14.85;11.80;;;8.50;99.90;;;;;;5035985;28;20223;-80
2023/02/25 05:46:39;;;;;;;16.48;13.38;;;8.50;99.90;;;;;;5038547;28;20265;-84
2023/02/25 05:49:06;;;;;;;15.07;13.20;;;8.50;99.90;;;;;;5038685;28;20685;-79
2023/02/25 05:51:34;;;;;;;17.95;14.32;;;8.50;99.90;;;;;;5043854;28;20234;-90
2023/02/25 05:54:01;;;;;;;23.10;16.15;;;8.40;99.90;;;;;;5043893;28;20215;-80
2023/02/25 05:56:30;;;;;;;23.13;15.45;;;8.30;99.90;;;;;;5043444;28;20226;-84
2023/02/25 05:58:57;;;;;;;19.88;14.77;;;8.30;99.90;;;;;;5050631;28;20218;-84
2023/02/25 06:01:28;;;;;;;18.63;14.70;;;8.20;99.90;;;;;;5048803;28;20611;-84
2023/02/25 06:03:58;;;;;;;21.20;15.25;;;8.20;99.90;;;;;;5044988;28;20220;-81
2023/02/25 06:06:27;;;;;;;18.40;15.30;;;8.10;99.90;;;;;;5049433;28;20227;-87
2023/02/25 06:08:56;;;;;;;20.27;14.75;;;8.10;99.90;;;;;;5048294;28;20219;-84
2023/02/25 06:11:25;;;;;;;16.45;13.88;;;8.10;99.90;;;;;;5049386;28;20742;-81
2023/02/25 06:13:54;;;;;;;20.02;14.73;;;8.00;99.90;;;;;;5053336;28;20257;-83
2023/02/25 06:16:24;;;;;;;22.25;16.23;;;8.00;99.90;;;;;;5053853;28;20781;-90
2023/02/25 06:18:52;;;;;;;24.08;17.08;;;7.90;99.90;;;;;;5026116;28;20877;-89
2023/02/25 06:21:20;;;;;;;23.73;18.00;;;8.00;99.90;;;;;;5051519;28;20707;-87
2023/02/25 06:23:49;;;;;;;25.92;18.25;;;7.90;99.90;;;;;;5051352;28;20700;-87
2023/02/25 06:26:17;;;;;;;21.55;17.60;;;7.80;99.90;;;;;;5057096;28;20219;-90
2023/02/25 06:28:44;;;;;;;24.67;19.00;;;7.80;99.90;;;;;;5048984;28;20223;-89
2023/02/25 06:31:14;;;;;;;25.48;17.92;;;7.80;99.90;;;;;;5050340;28;20229;-89
2023/02/25 06:33:41;;;;;;;23.92;16.95;;;7.80;99.90;;;;;;5048648;28;20233;-91
2023/02/25 06:36:09;;;;;;;24.55;16.13;;;7.90;99.90;;;;;;5051543;28;20253;-91
2023/02/25 06:38:38;;;;;;;21.05;16.45;;;7.90;99.90;;;;;;5051248;28;20234;-90
2023/02/25 06:41:15;;;;;;;20.58;15.40;;;8.00;99.90;;;;;;5057926;28;20247;-89
2023/02/25 06:43:42;;;;;;;19.92;15.85;;;8.00;99.90;;;;;;5038705;28;20215;-89
2023/02/25 06:46:12;;;;;;;18.95;15.25;;;8.10;99.90;;;;;;5041493;28;20712;-88
2023/02/25 06:48:40;;;;;;;18.65;14.75;;;8.10;99.90;;;;;;5051941;28;20234;-82
2023/02/25 06:51:09;;;;;;;19.95;15.45;;;8.10;99.90;;;;;;5061082;28;20194;-88
2023/02/25 06:53:38;;;;;;;22.23;17.35;;;8.20;99.90;;;;;;5034728;28;20278;-90
2023/02/25 06:56:07;;;;;;;23.42;16.85;;;8.20;99.90;;;;;;5058174;28;20747;-89
2023/02/25 06:58:34;;;;;;;21.67;16.65;;;8.20;99.90;;;;;;5042345;28;20309;-88
2023/02/25 07:01:05;;;;;;;21.92;16.35;;;8.20;99.90;;;;;;5043777;28;20206;-86
2023/02/25 07:03:32;;;;;;;21.10;16.88;;;8.20;99.90;;;;;;5054238;28;20226;-91
2023/02/25 07:05:59;;;;;;;20.88;17.35;;;8.10;99.90;;;;;;5047514;28;20299;-76
2023/02/25 07:08:27;;;;;;;20.85;16.42;;;8.00;99.90;;;;;;5036865;28;20242;-73
2023/02/25 07:10:57;;;;;;;22.10;16.90;;;8.00;99.90;;;;;;5044173;28;20227;-75
2023/02/25 07:13:24;;;;;;;25.45;17.83;;;8.00;99.90;;;;;;5024161;28;20730;-77
2023/02/25 07:15:51;;;;;;;25.20;17.83;;;8.10;99.90;;;;;;5027071;28;20290;-75
2023/02/25 07:18:19;;;;;;;22.35;16.73;;;8.20;99.90;;;;;;5044581;28;20242;-85
2023/02/25 07:20:46;;;;;;;24.85;18.95;;;8.20;99.90;;;;;;5054673;28;20197;-80
2023/02/25 07:23:13;;;;;;;22.95;18.02;;;8.40;99.90;;;;;;5052748;28;20242;-82
2023/02/25 07:25:42;;;;;;;25.80;19.67;;;8.70;99.90;;;;;;5051704;28;20282;-83
2023/02/25 07:28:11;;;;;;;23.77;18.92;;;8.90;99.90;;;;;;5027252;28;20230;-83
2023/02/25 07:30:38;;;;;;;28.83;19.20;;;9.30;99.90;;;;;;5050023;28;20199;-82
2023/02/25 07:33:05;;;;;;;25.85;18.63;;;9.80;99.90;;;;;;5053000;28;20221;-84
2023/02/25 07:35:34;;;;;;;25.40;18.55;;;10.40;99.90;;;;;;5055323;28;20196;-81
2023/02/25 07:38:03;;;;;;;25.73;19.70;;;10.80;99.90;;;;;;5053529;28;20245;-78
2023/02/25 07:40:30;;;;;;;27.23;20.35;;;11.00;99.90;;;;;;5037137;28;20199;-76
2023/02/25 07:42:57;;;;;;;24.30;19.60;;;11.50;99.90;;;;;;5021566;28;20317;-77
2023/02/25 07:45:27;;;;;;;29.98;20.63;;;12.20;99.90;;;;;;5045636;28;20253;-77
2023/02/25 07:47:54;;;;;;;26.75;19.20;;;12.70;99.90;;;;;;5047185;28;20243;-75
2023/02/25 07:50:21;;;;;;;27.92;20.95;;;13.00;99.90;;;;;;5048710;28;20235;-76
2023/02/25 07:52:48;;;;;;;31.67;21.95;;;13.20;99.90;;;;;;5044433;28;20247;-77
2023/02/25 07:55:16;;;;;;;30.73;21.83;;;13.50;99.90;;;;;;5060162;28;20199;-77
2023/02/25 07:57:44;;;;;;;29.90;21.38;;;13.80;99.90;;;;;;5050587;28;20280;-76
2023/02/25 08:00:12;;;;;;;27.02;21.27;;;14.00;99.90;;;;;;5046959;28;20235;-75
2023/02/25 08:02:41;;;;;;;29.00;21.13;;;14.30;99.90;;;;;;5050049;28;20865;-77
2023/02/25 08:05:09;;;;;;;30.30;21.45;;;14.50;99.90;;;;;;5027554;28;20930;-78
2023/02/25 08:07:36;;;;;;;30.13;21.88;;;14.60;99.90;;;;;;5033388;28;20243;-76
2023/02/25 08:10:05;;;;;;;31.17;20.17;;;14.80;99.90;;;;;;5029793;28;20253;-79
2023/02/25 08:12:33;;;;;;;28.42;20.38;;;15.10;99.90;;;;;;5047075;28;20248;-76
2023/02/25 08:15:00;;;;;;;31.33;21.25;;;15.40;99.90;;;;;;5035245;28;20211;-74
2023/02/25 08:17:31;;;;;;;29.13;21.35;;;15.50;99.90;;;;;;5047199;28;20919;-74
2023/02/25 08:19:59;;;;;;;29.48;21.27;;;15.60;99.90;;;;;;5046335;28;20215;-74
2023/02/25 08:22:26;;;;;;;29.00;20.42;;;15.60;99.90;;;;;;5038891;28;20196;-79
2023/02/25 08:24:53;;;;;;;28.17;20.92;;;15.60;99.90;;;;;;5044509;28;20654;-75
2023/02/25 08:27:20;;;;;;;29.45;22.23;;;15.70;99.90;;;;;;5040678;28;20226;-77
2023/02/25 08:29:49;;;;;;;30.45;20.55;;;15.90;99.90;;;;;;5040930;28;20219;-76
2023/02/25 08:32:16;;;;;;;26.48;19.85;;;16.10;99.90;;;;;;5042828;28;20207;-75
2023/02/25 08:34:44;;;;;;;31.92;21.13;;;16.30;99.90;;;;;;5039837;28;20239;-74
2023/02/25 08:37:12;;;;;;;28.30;20.98;;;16.50;99.90;;;;;;5038636;28;20230;-76
2023/02/25 08:39:39;;;;;;;29.20;21.23;;;16.60;99.90;;;;;;5039719;28;20246;-76
2023/02/25 08:42:07;;;;;;;30.77;21.52;;;16.60;99.90;;;;;;5048530;28;20278;-76
2023/02/25 08:44:36;;;;;;;31.30;20.85;;;16.70;99.90;;;;;;5031914;28;20634;-76
2023/02/25 08:47:03;;;;;;;30.17;20.67;;;16.70;99.90;;;;;;5043802;28;20251;-75
2023/02/25 08:49:31;;;;;;;28.35;20.63;;;17.00;99.90;;;;;;5042771;28;20262;-75
2023/02/25 08:51:58;;;;;;;28.23;21.55;;;17.60;99.90;;;;;;5045713;28;20230;-76
2023/02/25 08:54:26;;;;;;;29.83;21.50;;;17.90;99.90;;;;;;5034661;28;20255;-77
2023/02/25 08:56:54;;;;;;;30.45;22.00;;;17.90;99.90;;;;;;5039297;28;20309;-76
2023/02/25 08:59:21;;;;;;;31.92;22.35;;;17.70;99.90;;;;;;5043016;28;20229;-75
2023/02/25 09:01:51;;;;;;;28.73;22.05;;;17.50;99.90;;;;;;5039131;28;20223;-77
2023/02/25 09:04:21;;;;;;;31.55;23.13;;;17.60;99.90;;;;;;5034179;28;20592;-76
2023/02/25 09:06:49;;;;;;;30.25;22.92;;;17.70;99.90;;;;;;5051933;28;20222;-77
2023/02/25 09:09:18;;;;;;;31.83;23.50;;;17.50;99.90;;;;;;5020528;28;20234;-76
2023/02/25 09:11:48;;;;;;;30.67;22.30;;;17.40;99.90;;;;;;5035202;28;20219;-75
2023/02/25 09:14:15;;;;;;;30.45;22.52;;;17.40;99.90;;;;;;5041030;28;20302;-75
2023/02/25 09:16:43;;;;;;;27.33;21.13;;;17.50;99.90;;;;;;5042346;28;20321;-78
2023/02/25 09:19:14;;;;;;;27.95;22.27;;;17.70;99.90;;;;;;5039050;28;20310;-74
2023/02/25 09:21:43;;;;;;;29.25;21.95;;;18.00;99.90;;;;;;5023494;28;20286;-75
2023/02/25 09:24:11;;;;;;;27.25;20.98;;;18.20;99.90;;;;;;5023116;28;20226;-76
2023/02/25 09:26:38;;;;;;;24.35;18.75;;;18.40;99.90;;;;;;5047123;28;20307;-75
2023/02/25 09:29:08;;;;;;;28.70;22.63;;;18.70;99.90;;;;;;5021793;28;20267;-76
2023/02/25 09:31:36;;;;;;;29.65;22.08;;;18.70;99.90;;;;;;5042639;28;20298;-77
2023/02/25 09:34:05;;;;;;;31.60;22.55;;;18.60;99.90;;;;;;5049594;28;20309;-77
2023/02/25 09:36:33;;;;;;;30.33;22.40;;;18.60;99.90;;;;;;5043981;28;20376;-77
2023/02/25 09:39:00;;;;;;;29.50;21.95;;;18.60;99.90;;;;;;5044149;28;20306;-75
2023/02/25 09:41:32;;;;;;;26.92;20.80;;;18.70;99.90;;;;;;5038578;28;20234;-75
2023/02/25 09:44:07;;;;;;;25.90;18.98;;;18.80;99.90;;;;;;5026326;28;20292;-75
2023/02/25 09:46:42;;;;;;;25.80;19.58;;;19.10;99.90;;;;;;5025849;28;20219;-74
2023/02/25 09:49:15;;;;;;;23.02;18.85;;;19.10;99.90;;;;;;5042753;28;20220;-74
2023/02/25 09:51:47;;;;;;;33.97;22.83;;;19.10;99.90;;;;;;5041231;28;20213;-76
2023/02/25 09:54:21;;;;;;;30.55;22.17;;;18.80;99.90;;;;;;5012331;28;20223;-74
2023/02/25 09:56:49;;;;;;;30.98;22.58;;;18.50;99.90;;;;;;5040767;28;20321;-74
2023/02/25 09:59:20;;;;;;;30.00;22.50;;;18.20;99.90;;;;;;5039835;28;20242;-78
2023/02/25 10:01:53;;;;;;;33.53;21.17;;;18.10;99.90;;;;;;5040414;28;20222;-79
2023/02/25 10:04:32;;;;;;;32.05;22.63;;;18.10;99.90;;;;;;5030010;28;20220;-75
2023/02/25 10:07:06;;;;;;;27.10;21.35;;;18.10;99.90;;;;;;5037297;28;20226;-75
2023/02/25 10:09:41;;;;;;;27.20;19.90;;;18.20;99.90;;;;;;5042343;28;20341;-75
2023/02/25 10:12:19;;;;;;;27.90;20.55;;;18.60;99.90;;;;;;5044077;28;20194;-74
2023/02/25 10:15:27;;;;;;;26.13;20.83;;;19.10;99.90;;;;;;5040387;28;20214;-74
2023/02/25 10:18:12;;;;;;;24.75;17.42;;;19.00;99.90;;;;;;5037783;28;20704;-75
2023/02/25 10:20:53;;;;;;;22.70;17.33;;;19.00;99.90;;;;;;5050817;28;20456;-75
2023/02/25 10:23:34;;;;;;;26.13;18.05;;;19.00;99.90;;;;;;5028912;28;20954;-75
2023/02/25 10:26:06;;;;;;;24.90;18.75;;;18.90;99.90;;;;;;5038559;28;20233;-76
2023/02/25 10:28:35;;;;;;;26.88;19.27;;;19.10;99.90;;;;;;5039995;28;20315;-75
2023/02/25 10:31:05;;;;;;;26.60;19.27;;;19.10;99.90;;;;;;5039471;28;20257;-75
2023/02/25 10:33:39;;;;;;;24.27;17.83;;;19.00;99.90;;;;;;5025744;28;20223;-76
2023/02/25 10:36:10;;;;;;;23.95;17.75;;;19.30;99.90;;;;;;5040089;28;20237;-75
2023/02/25 10:38:41;;;;;;;25.77;17.95;;;19.60;99.90;;;;;;5034769;28;20258;-74
2023/02/25 10:41:09;;;;;;;25.65;18.92;;;19.80;99.90;;;;;;5039524;28;20202;-74
2023/02/25 10:43:36;;;;;;;27.25;20.05;;;19.90;99.90;;;;;;5020339;28;20333;-76
2023/02/25 10:46:10;;;;;;;26.33;19.48;;;19.50;99.90;;;;;;5021769;28;20676;-75
2023/02/25 10:48:41;;;;;;;24.05;18.10;;;19.00;99.90;;;;;;5025313;28;20759;-74
2023/02/25 10:51:10;;;;;;;23.20;16.85;;;18.80;99.90;;;;;;5039305;28;20196;-75
2023/02/25 10:53:39;;;;;;;23.08;17.88;;;18.80;99.90;;;;;;5039764;28;20310;-75
2023/02/25 10:56:07;;;;;;;28.77;18.00;;;18.60;99.90;;;;;;5048651;28;20214;-77
2023/02/25 10:58:46;;;;;;;30.27;19.85;;;18.30;99.90;;;;;;5042500;28;20314;-77
2023/02/25 11:01:15;;;;;;;21.15;17.08;;;18.10;99.90;;;;;;5043850;28;20286;-78
2023/02/25 11:03:53;;;;;;;19.13;15.50;;;18.40;99.90;;;;;;5021617;28;20258;-74
2023/02/25 11:06:24;;;;;;;22.75;17.33;;;18.90;99.90;;;;;;5041439;28;20226;-76
2023/02/25 11:08:53;;;;;;;23.27;16.90;;;19.50;99.90;;;;;;5039926;28;20219;-78
2023/02/25 11:11:24;;;;;;;20.60;15.40;;;19.40;99.90;;;;;;5041377;28;20202;-76
2023/02/25 11:14:00;;;;;;;26.05;16.42;;;19.40;99.90;;;;;;5045766;28;20257;-72
2023/02/25 11:16:28;;;;;;;19.27;14.55;;;19.20;99.90;;;;;;5042282;28;20564;-72
2023/02/25 11:18:59;;;;;;;20.58;15.05;;;19.40;99.90;;;;;;5039713;28;20299;-71
2023/02/25 11:21:34;;;;;;;20.92;14.85;;;19.60;99.90;;;;;;5040880;28;20286;-71
2023/02/25 11:24:05;;;;;;;16.33;12.70;;;19.60;99.90;;;;;;5037558;28;20317;-71
2023/02/25 11:26:36;;;;;;;19.98;13.73;;;19.70;99.90;;;;;;5042283;28;20317;-71
2023/02/25 11:29:09;;;;;;;17.77;12.88;;;19.90;99.90;;;;;;5043133;28;20214;-74
2023/02/25 11:31:39;;;;;;;18.08;12.63;;;19.80;99.90;;;;;;5043507;28;20214;-73
2023/02/25 11:34:16;;;;;;;17.30;13.07;;;19.70;99.90;;;;;;5046866;28;20207;-75
2023/02/25 11:36:44;;;;;;;19.17;13.25;;;19.40;99.90;;;;;;5029104;28;20306;-74
2023/02/25 11:39:17;;;;;;;18.95;12.90;;;19.10;99.90;;;;;;5050214;28;20317;-74
2023/02/25 11:41:46;;;;;;;17.30;12.57;;;18.80;99.90;;;;;;5037489;28;20230;-75
2023/02/25 11:44:28;;;;;;;18.33;12.38;;;18.90;99.90;;;;;;5050731;28;20302;-74
2023/02/25 11:47:19;;;;;;;16.52;12.30;;;19.20;99.90;;;;;;5038752;28;20310;-73
2023/02/25 11:50:09;;;;;;;15.65;11.38;;;19.50;99.90;;;;;;5048780;28;20306;-73
2023/02/25 11:52:44;;;;;;;22.38;13.52;;;19.50;99.90;;;;;;5024890;28;20226;-73
2023/02/25 11:55:23;;;;;;;22.23;13.75;;;19.30;99.90;;;;;;5041958;28;20714;-74
2023/02/25 11:58:05;;;;;;;23.70;15.05;;;19.20;99.90;;;;;;5027063;28;20214;-74
2023/02/25 12:00:39;;;;;;;17.58;13.15;;;19.30;99.90;;;;;;5049912;28;20203;-74
2023/02/25 12:03:24;;;;;;;18.20;11.57;;;19.50;99.90;;;;;;5044082;28;20254;-73
2023/02/25 12:06:07;;;;;;;17.80;10.73;;;19.70;99.90;;;;;;5046186;28;20222;-72
2023/02/25 12:08:43;;;;;;;13.98;8.57;;;19.60;99.90;;;;;;5041397;28;20227;-74
2023/02/25 12:11:47;;;;;;;13.05;9.52;;;19.40;99.90;;;;;;5023554;28;20573;-74
2023/02/25 12:14:58;;;;;;;17.70;12.13;;;19.50;99.90;;;;;;5018705;28;20234;-73
2023/02/25 12:17:51;;;;;;;12.60;10.20;;;19.50;99.90;;;;;;5039860;28;20246;-73
2023/02/25 12:20:55;;;;;;;15.88;11.10;;;19.60;99.90;;;;;;5030314;28;20246;-74
2023/02/25 12:23:55;;;;;;;14.27;9.60;;;19.50;99.90;;;;;;5041461;28;20226;-74
2023/02/25 12:26:35;;;;;;;16.00;10.10;;;19.70;99.90;;;;;;5044341;28;20245;-75
2023/02/25 12:29:31;;;;;;;14.07;9.95;;;19.70;99.90;;;;;;5046995;28;20253;-74
2023/02/25 12:32:19;;;;;;;15.95;10.77;;;19.60;99.90;;;;;;5023862;28;20195;-74
2023/02/25 12:35:16;;;;;;;15.00;10.60;;;19.60;99.90;;;;;;5028793;28;20305;-74
2023/02/25 12:38:27;;;;;;;12.00;8.68;;;19.50;99.90;;;;;;5046051;28;20247;-74
2023/02/25 12:41:08;;;;;;;11.85;8.43;;;19.40;99.90;;;;;;5043614;28;20293;-74
2023/02/25 12:43:45;;;;;;;12.70;8.65;;;19.40;99.90;;;;;;5035176;28;20227;-73
2023/02/25 12:46:39;;;;;;;14.27;8.82;;;19.30;99.90;;;;;;5040682;28;20211;-74
2023/02/25 12:49:49;;;;;;;11.02;7.28;;;19.20;99.90;;;;;;5049965;28;20271;-74
2023/02/25 12:52:34;;;;;;;14.82;8.10;;;19.50;99.90;;;;;;4969177;28;20236;-74
2023/02/25 12:55:22;;;;;;;15.80;7.72;;;19.50;99.90;;;;;;4957207;28;20715;-74